• Join FlightAware (Why Join?)
  • Login
  • US Flag 
01:56PM EST


 

Airport Tracker/Info


-or-


 

Live Flight TrackerFlight Track Log ✈ USC392 ✈ 08-May-2013 ✈ KPDK - KCLT

Flight Track Log - Related Links

Times and Time Zones

All times are in EDT time to prevent confusion due to time zone crossing. See the USC392 flight status page for this flight to view local times or setup timezone preferences in your user account.

Time Position Orientation Groundspeed Altitude Reporting Facility
EDT Latitude Longitude Course Direction KTS MPH feet Rate Location/Type
10:47PM 33.8833 -84.2000 90° East 135 155 3,600  Level Atlanta TRACON
10:48PM 33.8833 -84.1500 90° East 130 150 4,600 600 Climbing Atlanta TRACON
10:49PM 33.9000 -84.1000 68° East 158 182 4,900 120 Climbing Atlanta TRACON
10:50PM 33.9000 -84.0333 90° East 175 201 4,900 180 Level Atlanta TRACON
10:51PM 33.8667 -84.0573 90° East  Level FlightAware Approximate
10:51PM 33.9000 -83.9833 90° East 167 192 5,300  Level Atlanta TRACON
10:52PM 33.9047 -83.8986 86° East 154 177 6,400 660 Climbing Atlanta Center
10:53PM 33.9069 -83.8511 87° East 141 162 7,100 660 Climbing Atlanta Center
10:54PM 33.9089 -83.8061 87° East 141 162 7,800 600 Climbing Atlanta Center
10:55PM 33.9086 -83.7558 90° East 141 162 8,400 540 Climbing Atlanta Center
10:56PM 33.9192 -83.7108 74° East 141 162 8,900 300 Climbing Atlanta Center
10:57PM 33.9397 -83.6658 61° Northeast 141 162 9,000  Climbing Atlanta Center
10:58PM 33.9667 -83.6131 58° Northeast 152 175 9,000  Level Atlanta Center
10:59PM 33.9917 -83.5628 59° Northeast 165 190 9,000  Level Atlanta Center
11:00PM 34.0103 -83.5200 62° Northeast 165 190 9,000  Level Atlanta Center
11:01PM 34.0331 -83.4722 60° Northeast 165 190 9,000  Level Atlanta Center
11:02PM 34.0536 -83.4244 63° Northeast 165 190 9,000  Level Atlanta Center
11:03PM 34.0806 -83.3742 57° Northeast 165 190 9,000  Level Atlanta Center
11:04PM 34.1031 -83.3264 60° Northeast 165 190 9,000  Level Atlanta Center
11:05PM 34.1342 -83.2708 56° Northeast 171 197 9,000  Level Atlanta Center
11:06PM 34.1506 -83.2306 64° Northeast 164 189 9,000  Level Atlanta Center
11:07PM 34.1731 -83.1800 62° Northeast 164 189 9,000  Level Atlanta Center
11:08PM 34.1978 -83.1297 59° Northeast 164 189 9,000  Level Atlanta Center
11:09PM 34.2225 -83.0842 57° Northeast 164 189 9,000  Level Atlanta Center
11:10PM 34.2450 -83.0336 62° Northeast 164 189 9,000  Level Atlanta Center
11:11PM 34.2697 -82.9856 58° Northeast 164 189 9,000  Level Atlanta Center
11:12PM 34.2922 -82.9350 62° Northeast 164 189 9,000  Level Atlanta Center
11:13PM 34.3147 -82.8894 59° Northeast 164 189 9,000  Level Atlanta Center
11:14PM 34.3394 -82.8389 59° Northeast 164 189 9,000  Level Atlanta Center
11:15PM 34.3619 -82.7931 59° Northeast 164 189 9,000  Level Atlanta Center
11:16PM 34.3844 -82.7425 62° Northeast 164 189 9,000  Level Atlanta Center
11:17PM 34.4089 -82.6942 58° Northeast 164 189 9,000  Level Atlanta Center
11:18PM 34.4311 -82.6436 62° Northeast 164 189 9,000  Level Atlanta Center
11:19PM 34.4556 -82.5928 60° Northeast 169 194 9,000  Level Atlanta Center
11:20PM 34.4800 -82.5394 61° Northeast 169 194 9,000 -300 Level Atlanta Center
11:22PM 34.5039 -82.4868 61° Northeast  Level FlightAware Approximate
11:29PM 34.6629 -82.1352 61° Northeast  Level FlightAware Approximate
11:30PM 34.6856 -82.0849 61° Northeast  Level FlightAware Approximate
11:30PM 34.7272 -82.0144 61° Northeast 180 207 5,900  Level Atlanta Center
11:31PM 34.7082 -82.0346 61° Northeast  Level FlightAware Approximate
11:31PM 34.7533 -81.9581 61° Northeast 184 212 5,600  Level Atlanta Center
11:32PM 34.7308 -81.9842 61° Northeast  Level FlightAware Approximate
11:32PM 34.7775 -81.9044 61° Northeast 184 212 5,200  Level Atlanta Center
11:33PM 34.7533 -81.9337 61° Northeast  Level FlightAware Approximate
11:33PM 34.8036 -81.8481 61° Northeast 186 214 5,000  Level Atlanta Center
11:34PM 34.7759 -81.8833 61° Northeast  Level FlightAware Approximate
11:34PM 34.8297 -81.7917 61° Northeast 180 207 5,000  Level Atlanta Center
11:35PM 34.7984 -81.8328 61° Northeast  Level FlightAware Approximate
11:35PM 34.8539 -81.7381 61° Northeast 177 204 5,000  Level Atlanta Center
11:36PM 34.8209 -81.7823 61° Northeast  Level FlightAware Approximate
11:36PM 34.8778 -81.6892 59° Northeast 177 204 5,000  Level Atlanta Center
11:37PM 34.8997 -81.6353 64° Northeast 179 206 5,000  Level Atlanta Center
11:38PM 34.9297 -81.5736 59° Northeast 178 205 5,000  Level Atlanta Center
11:39PM 34.9539 -81.5250 59° Northeast 175 201 5,000  Level Atlanta Center
11:40PM 34.9869 -81.5011 31° Northeast 167 192 5,000  Level Atlanta Center
11:41PM 35.0300 -81.4692 31° Northeast 170 196 5,000  Level Atlanta Center
11:42PM 35.0625 -81.4278 46° Northeast 173 199 5,000  Level Atlanta Center
11:43PM 35.0950 -81.3911 43° Northeast 167 192 5,000  Level Atlanta Center
11:44PM 35.1275 -81.3469 48° Northeast 166 191 5,000  Level Atlanta Center
11:45PM 35.1600 -81.3078 45° Northeast 166 191 5,000  Level Atlanta Center
11:46PM 35.1925 -81.2633 48° Northeast 169 194 5,000  Level Atlanta Center
11:48PM 35.2289 -81.2192 45° Northeast 169 194 5,000  Level Atlanta Center
11:49PM 35.2614 -81.1747 48° Northeast 169 194 5,000  Level Atlanta Center
11:50PM 35.2939 -81.1353 45° Northeast 171 197 5,000 -480 Level Atlanta Center
11:50PM 35.3050 -81.0789 76° East 202 232 4,100 -780 Descending Atlanta Center
11:52PM 35.3014 -81.0156 94° East 197 227 3,600 -900 Descending Atlanta Center
11:53PM 35.2686 -80.9581 125° Southeast 196 226 2,400 -1,200 Descending Atlanta Center
11:54PM 35.2344 -80.9264 143° Southeast 153 176 1,200 -1,200 Descending Atlanta Center
11:56PM 35.2000 -80.9333 168° South  Level FlightAware Approximate